Time;durP1;ratioP1;P1;durP2;ratioP2;P2;SDS_P1;SDS_P2;PMS_P1;PMS_P2;Temp;Humidity;BMP_temperature;BMP_pressure;BME280_temperature;BME280_humidity;BME280_pressure;Samples;Min_cycle;Max_cycle;Signal;HPM_P1;HPM_P2
2021/09/21 00:01:11;;;;;;;2.13;1.98;;;13.20;89.10;;;;;;5011448;28;20848;-74
2021/09/21 00:03:37;;;;;;;3.80;2.47;;;13.20;89.00;;;;;;5015865;28;20191;-74
2021/09/21 00:06:05;;;;;;;2.47;2.38;;;13.20;89.10;;;;;;5014423;28;20682;-74
2021/09/21 00:08:34;;;;;;;2.67;2.47;;;13.20;89.10;;;;;;5014042;28;20185;-74
2021/09/21 00:11:01;;;;;;;2.13;2.08;;;13.20;89.00;;;;;;5013798;28;20188;-74
2021/09/21 00:13:28;;;;;;;2.22;2.13;;;13.30;89.00;;;;;;5021930;28;20187;-74
2021/09/21 00:15:54;;;;;;;2.25;2.13;;;13.30;89.00;;;;;;5014455;28;20201;-74
2021/09/21 00:18:19;;;;;;;2.08;1.92;;;13.30;89.10;;;;;;5013723;28;20260;-74
2021/09/21 00:20:45;;;;;;;3.05;2.72;;;13.20;89.10;;;;;;5011797;28;20243;-74
2021/09/21 00:23:11;;;;;;;2.70;2.50;;;13.20;89.30;;;;;;5015369;28;20192;-74
2021/09/21 00:25:37;;;;;;;3.22;2.97;;;13.20;89.50;;;;;;5019064;28;20192;-74
2021/09/21 00:28:03;;;;;;;2.60;2.33;;;13.20;89.50;;;;;;5016054;28;20181;-74
2021/09/21 00:30:29;;;;;;;3.22;3.03;;;13.10;89.70;;;;;;5008355;28;20189;-73
2021/09/21 00:33:02;;;;;;;2.67;2.47;;;13.00;89.90;;;;;;5020063;28;20183;-74
2021/09/21 00:35:33;;;;;;;2.15;2.05;;;13.00;90.10;;;;;;5014874;28;20177;-74
2021/09/21 00:38:00;;;;;;;2.83;2.63;;;13.00;90.20;;;;;;5013013;28;20196;-74
2021/09/21 00:40:26;;;;;;;2.63;2.42;;;12.90;90.40;;;;;;5015465;28;20271;-74
2021/09/21 00:42:51;;;;;;;3.08;2.85;;;12.90;90.70;;;;;;5016991;28;20185;-74
2021/09/21 00:45:26;;;;;;;3.30;3.00;;;12.80;90.80;;;;;;5011032;28;20640;-74
2021/09/21 00:47:53;;;;;;;2.63;2.42;;;12.80;90.80;;;;;;5017953;28;20180;-73
2021/09/21 00:50:19;;;;;;;2.80;2.40;;;12.80;90.70;;;;;;5009204;28;20180;-73
2021/09/21 00:52:46;;;;;;;3.10;2.90;;;12.80;90.70;;;;;;5016920;28;20264;-73
2021/09/21 00:55:12;;;;;;;2.63;2.47;;;12.80;90.80;;;;;;5013704;28;20682;-74
2021/09/21 00:57:38;;;;;;;2.97;2.78;;;12.80;90.80;;;;;;5018873;28;20629;-73
2021/09/21 01:00:09;;;;;;;2.72;2.60;;;12.90;90.60;;;;;;5014557;28;20236;-74
2021/09/21 01:02:34;;;;;;;3.25;2.95;;;12.90;90.40;;;;;;5012500;28;20307;-73
2021/09/21 01:05:01;;;;;;;2.83;2.67;;;12.90;90.50;;;;;;5012147;28;20184;-74
2021/09/21 01:07:27;;;;;;;2.88;2.67;;;12.90;90.20;;;;;;5017264;28;20698;-74
2021/09/21 01:10:08;;;;;;;2.55;2.10;;;13.00;90.00;;;;;;5012175;28;20196;-74
2021/09/21 01:12:34;;;;;;;4.40;3.08;;;13.00;89.80;;;;;;5017431;28;20177;-74
2021/09/21 01:15:01;;;;;;;2.97;2.80;;;13.10;89.80;;;;;;5011199;28;20296;-73
2021/09/21 01:17:28;;;;;;;2.65;2.45;;;13.10;89.90;;;;;;5010319;28;20177;-73
2021/09/21 01:19:53;;;;;;;3.05;2.80;;;13.00;90.10;;;;;;5010882;28;20227;-73
2021/09/21 01:22:19;;;;;;;2.58;2.40;;;13.00;90.00;;;;;;5011992;28;20547;-73
2021/09/21 01:24:46;;;;;;;2.28;2.17;;;13.00;90.00;;;;;;5012363;28;20185;-73
2021/09/21 01:27:12;;;;;;;2.92;2.72;;;13.00;89.90;;;;;;5012204;28;20185;-74
2021/09/21 01:29:37;;;;;;;2.35;2.15;;;13.00;90.00;;;;;;5016185;28;20596;-74
2021/09/21 01:32:04;;;;;;;2.72;2.55;;;13.00;89.90;;;;;;5015104;28;20192;-74
2021/09/21 01:34:32;;;;;;;2.38;2.13;;;13.00;89.90;;;;;;5014106;28;20621;-74
2021/09/21 01:36:58;;;;;;;3.92;2.35;;;12.90;90.20;;;;;;5012773;28;20585;-73
2021/09/21 01:39:25;;;;;;;2.45;2.35;;;12.90;90.20;;;;;;5012573;28;20196;-74
2021/09/21 01:41:51;;;;;;;2.47;2.38;;;12.90;90.30;;;;;;5013833;28;20224;-74
2021/09/21 01:44:17;;;;;;;2.40;2.28;;;12.80;90.50;;;;;;5005909;28;20326;-74
2021/09/21 01:46:45;;;;;;;2.30;2.20;;;12.80;90.50;;;;;;5012894;28;20705;-74
2021/09/21 01:49:13;;;;;;;2.70;2.50;;;12.80;90.40;;;;;;5009567;28;20180;-73
2021/09/21 01:51:42;;;;;;;2.15;2.05;;;12.80;90.40;;;;;;5013785;28;20280;-74
2021/09/21 01:59:30;;;;;;;2.85;2.75;;;12.70;90.60;;;;;;5016057;28;20194;-73
2021/09/21 02:01:56;;;;;;;2.10;2.00;;;12.60;90.80;;;;;;5019755;28;20184;-73
2021/09/21 02:04:22;;;;;;;1.90;1.80;;;12.60;91.00;;;;;;5012632;28;20222;-73
2021/09/21 02:06:48;;;;;;;2.00;1.83;;;12.60;90.80;;;;;;5017074;28;20188;-73
2021/09/21 02:09:14;;;;;;;2.60;2.40;;;12.50;90.80;;;;;;5014012;28;20188;-73
2021/09/21 02:11:42;;;;;;;2.25;2.15;;;12.50;90.90;;;;;;5009120;28;20193;-73
2021/09/21 02:14:11;;;;;;;2.35;2.25;;;12.40;91.30;;;;;;5008555;28;20197;-73
2021/09/21 02:16:38;;;;;;;2.67;2.53;;;12.40;91.50;;;;;;5011891;28;20291;-73
2021/09/21 02:19:04;;;;;;;2.10;2.00;;;12.40;91.50;;;;;;5012129;28;20188;-74
2021/09/21 02:21:30;;;;;;;2.10;1.98;;;12.30;91.80;;;;;;5014573;28;20290;-73
2021/09/21 02:23:58;;;;;;;3.10;2.25;;;12.30;92.00;;;;;;5012650;28;20181;-74
2021/09/21 02:26:26;;;;;;;4.88;2.38;;;12.20;92.30;;;;;;5014909;28;20260;-73
2021/09/21 02:28:52;;;;;;;2.67;2.58;;;12.10;92.60;;;;;;5009925;28;20825;-74
2021/09/21 02:31:19;;;;;;;2.13;2.03;;;12.10;93.00;;;;;;5017071;28;20188;-73
2021/09/21 02:33:45;;;;;;;2.55;2.35;;;12.00;93.30;;;;;;5010827;28;20189;-74
2021/09/21 02:36:11;;;;;;;3.70;2.63;;;12.00;93.40;;;;;;5014873;28;20191;-74
2021/09/21 02:38:37;;;;;;;2.30;2.15;;;12.00;93.40;;;;;;5008536;28;20180;-74
2021/09/21 02:41:04;;;;;;;2.60;2.40;;;12.00;93.30;;;;;;5009577;28;20220;-74
2021/09/21 02:43:30;;;;;;;2.17;1.98;;;12.10;92.80;;;;;;5014849;28;20188;-73
2021/09/21 02:46:00;;;;;;;2.13;2.03;;;12.10;92.70;;;;;;5016985;28;20192;-73
2021/09/21 02:48:27;;;;;;;2.67;2.47;;;12.10;92.80;;;;;;5014560;28;20725;-74
2021/09/21 02:50:52;;;;;;;2.17;2.08;;;12.10;92.80;;;;;;5011079;28;20657;-74
2021/09/21 02:53:18;;;;;;;2.15;2.05;;;12.10;92.70;;;;;;5013176;28;20189;-74
2021/09/21 02:55:44;;;;;;;2.40;2.20;;;12.10;92.60;;;;;;5012304;28;20578;-74
2021/09/21 02:58:12;;;;;;;2.30;2.20;;;12.10;92.50;;;;;;5009306;28;20181;-74
2021/09/21 03:00:38;;;;;;;2.05;1.95;;;12.20;92.30;;;;;;5018651;28;20212;-74
2021/09/21 03:03:05;;;;;;;1.98;1.88;;;12.20;92.00;;;;;;5019196;28;20191;-74
2021/09/21 03:05:36;;;;;;;1.75;1.65;;;12.20;92.10;;;;;;5016264;28;20291;-73
2021/09/21 03:08:23;;;;;;;2.90;2.72;;;12.20;91.90;;;;;;5046837;28;20998;-73
2021/09/21 03:17:05;;;;;;;1.45;1.45;;;12.20;91.80;;;;;;5016949;28;20279;-74
2021/09/21 03:19:16;;;;;;;2.13;1.92;;;12.20;91.60;;;;;;5014715;28;20376;-73
2021/09/21 03:21:42;;;;;;;3.15;2.42;;;12.20;91.70;;;;;;5014189;28;20311;-73
2021/09/21 03:24:07;;;;;;;1.95;1.85;;;12.20;91.60;;;;;;5017995;28;20181;-73
2021/09/21 03:26:33;;;;;;;2.00;1.90;;;12.20;91.70;;;;;;5013799;28;20173;-73
2021/09/21 03:28:59;;;;;;;2.03;1.92;;;12.20;91.90;;;;;;5015477;28;20551;-73
2021/09/21 03:31:24;;;;;;;1.67;1.48;;;12.10;91.80;;;;;;5020709;28;20180;-73
2021/09/21 03:33:50;;;;;;;2.78;1.38;;;12.10;91.90;;;;;;5014166;28;20189;-73
2021/09/21 03:36:16;;;;;;;2.58;1.83;;;12.10;91.80;;;;;;5021244;28;20181;-73
2021/09/21 03:38:42;;;;;;;2.05;1.95;;;12.10;91.70;;;;;;5013459;28;20216;-72
2021/09/21 03:41:07;;;;;;;1.77;1.67;;;12.10;91.80;;;;;;5018171;28;20212;-73
2021/09/21 03:43:33;;;;;;;1.92;1.50;;;12.20;91.60;;;;;;5019013;28;20608;-73
2021/09/21 03:45:59;;;;;;;1.90;1.77;;;12.20;91.60;;;;;;5020790;28;20247;-73
2021/09/21 03:48:24;;;;;;;1.73;1.63;;;12.20;91.40;;;;;;5017284;28;20189;-72
2021/09/21 03:50:50;;;;;;;1.63;1.63;;;12.20;91.60;;;;;;5019383;28;20267;-72
2021/09/21 03:53:15;;;;;;;1.50;1.50;;;12.10;91.60;;;;;;5010666;28;20192;-73
2021/09/21 03:55:41;;;;;;;1.48;1.40;;;12.10;91.60;;;;;;5015533;28;20177;-73
2021/09/21 03:58:07;;;;;;;1.70;1.58;;;12.10;91.70;;;;;;5020027;28;20212;-72
2021/09/21 04:00:33;;;;;;;1.40;1.40;;;12.10;91.60;;;;;;5009387;28;20223;-74
2021/09/21 04:02:59;;;;;;;1.17;1.17;;;12.20;91.30;;;;;;5020262;28;20227;-73
2021/09/21 04:05:24;;;;;;;1.40;1.40;;;12.20;91.30;;;;;;5015372;28;20188;-75
2021/09/21 04:07:51;;;;;;;1.10;1.10;;;12.10;91.30;;;;;;5013086;28;20185;-74
2021/09/21 04:10:17;;;;;;;1.40;1.40;;;12.10;91.20;;;;;;5018221;28;20253;-73
2021/09/21 04:12:43;;;;;;;2.10;1.98;;;12.20;91.20;;;;;;5014962;28;20193;-73
2021/09/21 04:15:09;;;;;;;1.42;1.33;;;12.20;91.10;;;;;;5009803;28;20215;-71
2021/09/21 04:17:35;;;;;;;1.60;1.50;;;12.20;90.90;;;;;;5010961;28;20181;-73
2021/09/21 04:20:01;;;;;;;2.15;1.77;;;12.30;90.70;;;;;;5013388;28;20208;-71
2021/09/21 04:22:30;;;;;;;1.63;1.52;;;12.30;90.80;;;;;;5008291;28;21030;-71
2021/09/21 04:24:55;;;;;;;1.25;1.25;;;12.30;90.60;;;;;;5016078;28;20208;-72
2021/09/21 04:27:22;;;;;;;1.30;1.30;;;12.30;90.60;;;;;;5010303;28;20675;-73
2021/09/21 04:29:50;;;;;;;1.35;1.35;;;12.40;90.50;;;;;;5016809;28;20191;-72
2021/09/21 04:32:19;;;;;;;1.40;1.30;;;12.30;90.20;;;;;;5013736;28;20181;-72
2021/09/21 04:34:47;;;;;;;1.63;1.52;;;12.30;90.30;;;;;;5016326;28;20191;-72
2021/09/21 04:37:13;;;;;;;1.75;1.65;;;12.30;90.40;;;;;;5010858;28;20239;-72
2021/09/21 04:39:41;;;;;;;1.63;1.50;;;12.30;90.50;;;;;;5016075;28;20185;-72
2021/09/21 04:42:08;;;;;;;1.80;1.70;;;12.30;90.40;;;;;;5011040;28;20185;-71
2021/09/21 04:44:35;;;;;;;1.58;1.58;;;12.30;90.40;;;;;;5018249;28;20255;-70
2021/09/21 04:47:00;;;;;;;1.35;1.35;;;12.30;90.40;;;;;;5017251;28;20185;-71
2021/09/21 04:49:26;;;;;;;1.95;1.85;;;12.30;90.30;;;;;;5013657;28;20185;-71
2021/09/21 04:51:51;;;;;;;2.03;1.88;;;12.30;90.40;;;;;;5016413;28;20598;-71
2021/09/21 04:54:17;;;;;;;1.40;1.40;;;12.30;90.50;;;;;;5013321;28;20188;-71
2021/09/21 04:56:43;;;;;;;2.10;1.52;;;12.30;90.40;;;;;;5016028;28;20326;-71
2021/09/21 04:59:08;;;;;;;1.88;1.77;;;12.20;90.40;;;;;;5012707;28;20248;-72
2021/09/21 05:01:36;;;;;;;3.67;1.85;;;12.20;90.30;;;;;;5015364;28;20579;-73
2021/09/21 05:04:02;;;;;;;2.13;2.03;;;12.20;90.30;;;;;;5011519;28;20212;-73
2021/09/21 05:06:28;;;;;;;1.98;1.88;;;12.20;90.20;;;;;;5011861;28;20675;-74
2021/09/21 05:08:53;;;;;;;1.83;1.67;;;12.20;90.10;;;;;;5019824;28;20198;-73
2021/09/21 05:11:19;;;;;;;1.67;1.52;;;12.20;90.20;;;;;;5015414;28;20279;-73
2021/09/21 05:13:45;;;;;;;4.45;1.33;;;12.20;90.00;;;;;;5011288;28;20270;-73
2021/09/21 05:16:11;;;;;;;1.80;1.70;;;12.20;90.10;;;;;;5015220;28;20744;-73
2021/09/21 05:18:37;;;;;;;2.13;2.03;;;12.20;90.10;;;;;;5012935;28;20177;-75
2021/09/21 05:21:03;;;;;;;2.00;1.88;;;12.20;90.10;;;;;;5016000;28;20216;-73
2021/09/21 05:23:28;;;;;;;1.95;1.85;;;12.20;89.90;;;;;;5011733;28;20185;-74
2021/09/21 05:25:54;;;;;;;1.55;1.55;;;12.30;90.00;;;;;;5013249;28;20181;-73
2021/09/21 05:28:20;;;;;;;2.10;2.00;;;12.30;90.00;;;;;;5012320;28;21097;-73
2021/09/21 05:30:46;;;;;;;1.95;1.85;;;12.30;89.90;;;;;;5015852;28;20193;-71
2021/09/21 05:33:12;;;;;;;2.88;1.90;;;12.40;89.90;;;;;;5014300;28;20192;-72
2021/09/21 05:35:37;;;;;;;2.38;1.70;;;12.40;89.90;;;;;;5010554;28;20188;-72
2021/09/21 05:38:03;;;;;;;1.58;1.48;;;12.50;89.90;;;;;;5012211;28;20185;-72
2021/09/21 05:40:29;;;;;;;2.08;1.98;;;12.60;89.80;;;;;;5007270;28;20281;-72
2021/09/21 05:42:55;;;;;;;3.42;1.65;;;12.70;89.50;;;;;;5009660;28;20181;-74
2021/09/21 05:45:22;;;;;;;2.15;1.98;;;12.70;89.30;;;;;;5013836;28;20686;-74
2021/09/21 05:47:48;;;;;;;2.00;1.90;;;12.70;89.10;;;;;;5014021;28;20188;-74
2021/09/21 05:50:14;;;;;;;2.13;2.00;;;12.70;88.90;;;;;;5014844;28;20627;-74
2021/09/21 05:52:41;;;;;;;2.05;1.98;;;12.70;88.80;;;;;;5017948;28;20598;-74
2021/09/21 05:55:07;;;;;;;2.25;2.15;;;12.70;88.90;;;;;;5014055;28;20632;-74
2021/09/21 05:57:34;;;;;;;1.77;1.77;;;12.70;88.80;;;;;;5017888;28;20183;-75
2021/09/21 05:59:59;;;;;;;2.78;2.00;;;12.70;88.80;;;;;;5016565;28;20389;-74
2021/09/21 06:02:25;;;;;;;1.75;1.70;;;12.70;88.60;;;;;;5014977;28;20188;-73
2021/09/21 06:04:51;;;;;;;2.47;1.95;;;12.70;88.60;;;;;;5012261;28;20193;-73
2021/09/21 06:07:18;;;;;;;2.55;2.40;;;12.80;88.60;;;;;;5011459;28;20177;-74
2021/09/21 06:09:43;;;;;;;4.15;2.13;;;12.80;88.30;;;;;;5017823;28;20188;-75
2021/09/21 06:12:09;;;;;;;2.22;2.13;;;12.80;87.90;;;;;;5014204;28;20200;-74
2021/09/21 06:14:35;;;;;;;5.32;2.00;;;12.80;88.00;;;;;;5010414;28;20211;-74
2021/09/21 06:17:01;;;;;;;2.65;1.90;;;12.80;88.20;;;;;;5009657;28;20185;-73
2021/09/21 06:19:26;;;;;;;1.80;1.73;;;12.90;88.10;;;;;;5019394;28;20195;-74
2021/09/21 06:21:52;;;;;;;2.25;2.15;;;12.90;88.20;;;;;;5011295;28;20207;-74
2021/09/21 06:24:18;;;;;;;1.85;1.85;;;13.00;87.90;;;;;;5012303;28;20564;-74
2021/09/21 06:26:44;;;;;;;2.67;2.53;;;13.00;87.70;;;;;;5016369;28;20184;-74
2021/09/21 06:29:09;;;;;;;2.63;2.42;;;13.00;87.70;;;;;;5010214;28;20184;-74
2021/09/21 06:31:35;;;;;;;2.63;2.53;;;12.90;87.20;;;;;;5014196;28;20220;-74
2021/09/21 06:34:01;;;;;;;2.65;2.45;;;13.00;87.30;;;;;;5014205;28;20177;-74
2021/09/21 06:36:27;;;;;;;2.38;2.25;;;13.00;87.10;;;;;;5009781;28;20193;-74
2021/09/21 06:38:55;;;;;;;2.50;2.40;;;13.00;86.90;;;;;;5011476;28;20211;-74
2021/09/21 06:41:20;;;;;;;2.33;2.03;;;13.00;86.90;;;;;;5015616;28;20730;-74
2021/09/21 06:43:46;;;;;;;2.88;2.72;;;13.00;86.70;;;;;;5014187;28;20177;-73
2021/09/21 06:46:12;;;;;;;2.72;2.33;;;13.00;86.80;;;;;;5011259;28;20227;-73
2021/09/21 06:48:40;;;;;;;2.97;2.78;;;13.00;86.50;;;;;;5007148;28;20192;-74
2021/09/21 06:51:07;;;;;;;3.08;2.88;;;13.00;86.50;;;;;;5010695;28;20220;-75
2021/09/21 06:53:33;;;;;;;2.55;2.42;;;13.00;86.50;;;;;;5016142;28;20190;-75
2021/09/21 06:55:59;;;;;;;2.30;2.20;;;12.90;86.50;;;;;;5018634;28;20618;-74
2021/09/21 06:58:25;;;;;;;2.58;2.47;;;13.00;86.60;;;;;;5011702;28;20185;-74
2021/09/21 07:00:51;;;;;;;2.58;2.38;;;13.00;86.60;;;;;;5014277;28;20189;-73
2021/09/21 07:03:16;;;;;;;2.80;2.70;;;13.10;86.40;;;;;;5006472;28;20267;-73
2021/09/21 07:05:42;;;;;;;2.17;2.17;;;13.10;86.40;;;;;;5011589;28;20230;-74
2021/09/21 07:08:08;;;;;;;2.38;2.28;;;13.10;86.10;;;;;;5013766;28;20651;-75
2021/09/21 07:10:34;;;;;;;3.15;2.88;;;13.00;86.10;;;;;;5010636;28;20223;-75
2021/09/21 07:13:00;;;;;;;3.13;2.83;;;13.00;86.00;;;;;;5011076;28;20185;-75
2021/09/21 07:15:26;;;;;;;2.83;2.50;;;13.00;85.90;;;;;;5017168;28;20184;-74
2021/09/21 07:17:55;;;;;;;2.80;2.70;;;13.00;86.20;;;;;;5013286;28;20184;-74
2021/09/21 07:20:23;;;;;;;3.08;2.78;;;13.10;86.20;;;;;;5017069;28;20181;-74
2021/09/21 07:22:49;;;;;;;2.97;2.78;;;13.20;86.00;;;;;;5010849;28;20192;-75
2021/09/21 07:25:15;;;;;;;2.80;2.70;;;13.30;85.80;;;;;;5004115;28;20196;-75
2021/09/21 07:27:41;;;;;;;3.45;3.15;;;13.40;85.60;;;;;;5007712;28;20192;-74
2021/09/21 07:30:08;;;;;;;2.40;2.30;;;13.40;85.40;;;;;;5013107;28;20216;-74
2021/09/21 07:32:34;;;;;;;3.30;3.00;;;13.50;85.30;;;;;;5010910;28;20610;-75
2021/09/21 07:35:01;;;;;;;2.90;2.80;;;13.60;84.30;;;;;;5014261;28;20329;-75
2021/09/21 07:37:27;;;;;;;2.92;2.83;;;13.60;83.80;;;;;;5008087;28;20250;-74
2021/09/21 07:39:53;;;;;;;4.40;3.25;;;13.70;84.30;;;;;;5009913;28;20185;-74
2021/09/21 07:42:19;;;;;;;5.13;2.92;;;13.80;84.20;;;;;;5011938;28;20199;-73
2021/09/21 07:44:45;;;;;;;3.50;3.30;;;13.90;84.30;;;;;;5013161;28;20794;-75
2021/09/21 07:47:12;;;;;;;4.70;3.58;;;13.90;83.70;;;;;;5021177;28;20621;-75
2021/09/21 07:49:38;;;;;;;3.38;3.13;;;14.00;83.60;;;;;;5018040;28;20192;-74
2021/09/21 07:52:04;;;;;;;4.97;3.03;;;14.10;83.30;;;;;;5022709;28;20635;-74
2021/09/21 07:54:30;;;;;;;3.65;3.35;;;14.10;83.10;;;;;;5018508;28;20183;-73
2021/09/21 07:56:55;;;;;;;3.65;3.45;;;14.20;82.50;;;;;;5016661;28;20675;-74
2021/09/21 07:59:21;;;;;;;4.30;3.05;;;14.20;82.40;;;;;;5017615;28;20439;-73
2021/09/21 08:01:47;;;;;;;3.35;3.05;;;14.30;82.30;;;;;;5020804;28;20216;-74
2021/09/21 08:04:12;;;;;;;3.65;3.40;;;14.30;82.50;;;;;;5015611;28;20286;-74
2021/09/21 08:06:38;;;;;;;3.40;3.20;;;14.40;82.30;;;;;;5011937;28;20624;-74
2021/09/21 08:09:04;;;;;;;3.42;3.22;;;14.50;82.00;;;;;;5022191;28;20180;-74
2021/09/21 08:11:30;;;;;;;3.50;2.70;;;14.50;82.00;;;;;;5016461;28;20725;-74
2021/09/21 08:13:55;;;;;;;2.78;2.63;;;14.50;81.40;;;;;;5012278;28;20181;-74
2021/09/21 08:16:21;;;;;;;2.85;2.75;;;14.50;81.30;;;;;;5010732;28;20181;-75
2021/09/21 08:18:47;;;;;;;2.72;2.63;;;14.60;81.40;;;;;;5012364;28;20191;-75
2021/09/21 08:21:12;;;;;;;3.47;3.28;;;14.70;81.10;;;;;;5012585;28;20188;-74
2021/09/21 08:23:38;;;;;;;3.72;3.42;;;14.70;80.70;;;;;;5014272;28;20270;-74
2021/09/21 08:26:04;;;;;;;3.70;3.40;;;14.70;80.80;;;;;;5013393;28;20600;-74
2021/09/21 08:28:30;;;;;;;2.83;2.72;;;14.70;80.50;;;;;;5003357;28;20185;-74
2021/09/21 08:30:57;;;;;;;2.55;2.45;;;14.80;80.80;;;;;;5005604;28;20323;-74
2021/09/21 08:33:23;;;;;;;10.63;2.90;;;14.90;80.80;;;;;;5010992;28;20177;-75
2021/09/21 08:35:49;;;;;;;3.13;2.92;;;14.90;80.10;;;;;;5007513;28;20188;-74
2021/09/21 08:38:14;;;;;;;2.97;2.88;;;14.90;80.10;;;;;;5011545;28;20190;-74
2021/09/21 08:40:40;;;;;;;3.03;2.83;;;15.00;80.40;;;;;;5015591;28;20196;-74
2021/09/21 08:43:06;;;;;;;2.63;2.42;;;15.10;79.70;;;;;;5004733;28;20237;-74
2021/09/21 08:45:32;;;;;;;2.85;2.75;;;15.30;80.10;;;;;;5011973;28;20728;-74
2021/09/21 08:47:57;;;;;;;3.58;2.60;;;15.50;80.00;;;;;;5013734;28;20877;-74
2021/09/21 08:50:24;;;;;;;2.88;2.78;;;15.70;79.40;;;;;;5011384;28;20209;-74
2021/09/21 08:52:51;;;;;;;2.55;2.40;;;16.00;79.40;;;;;;5014832;28;20180;-74
2021/09/21 08:55:17;;;;;;;2.80;2.67;;;16.20;78.90;;;;;;5012240;28;20193;-74
2021/09/21 08:57:43;;;;;;;3.42;3.22;;;16.50;78.40;;;;;;5015998;28;20203;-74
2021/09/21 09:00:21;;;;;;;2.90;2.70;;;16.90;78.00;;;;;;5013763;28;20195;-74
2021/09/21 09:02:47;;;;;;;2.67;2.17;;;17.20;76.80;;;;;;5015657;28;20191;-74
2021/09/21 09:05:13;;;;;;;2.25;2.15;;;17.70;75.40;;;;;;5008036;28;20684;-74
2021/09/21 09:07:53;;;;;;;2.58;2.25;;;18.00;74.20;;;;;;5014878;28;20215;-74
2021/09/21 09:10:22;;;;;;;2.85;2.65;;;18.40;73.70;;;;;;5009160;28;20211;-74
2021/09/21 09:12:48;;;;;;;2.70;2.60;;;18.70;73.50;;;;;;5007603;28;20624;-73
2021/09/21 09:15:16;;;;;;;2.47;2.38;;;19.10;72.10;;;;;;5010124;28;20192;-74
2021/09/21 09:18:01;;;;;;;2.85;2.75;;;19.30;71.80;;;;;;5018678;28;20690;-74
2021/09/21 09:20:34;;;;;;;2.65;2.45;;;19.60;70.70;;;;;;5012827;28;20187;-73
2021/09/21 09:23:01;;;;;;;2.35;2.20;;;19.90;71.40;;;;;;5010086;28;20189;-74
2021/09/21 09:25:28;;;;;;;3.53;2.20;;;20.20;70.60;;;;;;5010406;28;20208;-74
2021/09/21 09:27:54;;;;;;;2.75;2.47;;;20.30;69.00;;;;;;5007688;28;20181;-73
2021/09/21 09:30:25;;;;;;;2.55;1.83;;;20.50;69.70;;;;;;5012620;28;20694;-74
2021/09/21 09:32:57;;;;;;;2.50;2.40;;;20.60;68.60;;;;;;5006343;28;20189;-73
2021/09/21 09:35:29;;;;;;;3.03;2.70;;;20.80;68.70;;;;;;5009401;28;20185;-74
2021/09/21 09:38:00;;;;;;;2.35;2.20;;;21.00;68.80;;;;;;5012943;28;20198;-74
2021/09/21 09:40:27;;;;;;;4.70;2.45;;;21.30;67.70;;;;;;5008510;28;20276;-74
2021/09/21 09:42:53;;;;;;;2.53;2.38;;;21.70;67.60;;;;;;5012667;28;20176;-72
2021/09/21 09:45:33;;;;;;;2.00;2.00;;;22.10;66.90;;;;;;5014782;28;20195;-74
2021/09/21 09:47:59;;;;;;;2.00;1.95;;;22.70;66.30;;;;;;5015520;28;20172;-74
2021/09/21 09:50:31;;;;;;;3.20;1.77;;;23.60;63.80;;;;;;5007367;28;20267;-74
2021/09/21 09:53:14;;;;;;;2.70;1.65;;;24.40;62.20;;;;;;5013173;28;20183;-73
2021/09/21 09:55:42;;;;;;;1.13;1.13;;;25.60;62.10;;;;;;5007981;28;20224;-73
2021/09/21 09:58:08;;;;;;;1.70;1.60;;;27.00;59.90;;;;;;5012205;28;20640;-73
2021/09/21 10:00:35;;;;;;;1.25;1.25;;;28.10;57.30;;;;;;5016747;28;20844;-74
2021/09/21 10:03:02;;;;;;;1.85;1.38;;;29.00;55.50;;;;;;5011553;28;20245;-74
2021/09/21 10:05:32;;;;;;;6.82;1.40;;;29.60;55.90;;;;;;5014442;28;20181;-75
2021/09/21 10:07:59;;;;;;;1.65;1.63;;;30.00;51.40;;;;;;5012983;28;20284;-74
2021/09/21 10:10:26;;;;;;;2.65;1.90;;;29.90;53.20;;;;;;5011725;28;20827;-74
2021/09/21 10:12:52;;;;;;;1.67;1.58;;;29.50;53.70;;;;;;5009397;28;20200;-74
2021/09/21 10:15:18;;;;;;;2.22;2.13;;;29.20;54.60;;;;;;5011045;28;20651;-74
2021/09/21 10:17:53;;;;;;;1.75;1.65;;;29.10;54.50;;;;;;5012380;28;20176;-74
2021/09/21 10:20:33;;;;;;;1.48;1.38;;;29.10;54.00;;;;;;5012718;28;20184;-74
2021/09/21 10:23:00;;;;;;;1.30;1.30;;;29.10;54.50;;;;;;5009858;28;20180;-74
2021/09/21 10:25:31;;;;;;;1.42;1.42;;;29.50;54.70;;;;;;5010757;28;20230;-74
2021/09/21 10:27:58;;;;;;;1.10;1.10;;;29.90;53.10;;;;;;5008929;28;20192;-74
2021/09/21 10:30:29;;;;;;;1.35;1.35;;;30.20;50.80;;;;;;5015056;28;20291;-73
2021/09/21 10:32:55;;;;;;;1.15;1.15;;;30.50;50.90;;;;;;5006498;28;20189;-72
2021/09/21 10:35:26;;;;;;;1.65;1.52;;;30.90;49.60;;;;;;5012998;28;20189;-73
2021/09/21 10:38:03;;;;;;;1.42;1.42;;;30.90;52.60;;;;;;5006222;28;20188;-72
2021/09/21 10:40:41;;;;;;;1.70;1.67;;;30.90;50.70;;;;;;5011673;28;20188;-74
2021/09/21 10:43:28;;;;;;;1.13;1.13;;;30.90;49.00;;;;;;5013405;28;20277;-73
2021/09/21 10:46:16;;;;;;;1.15;1.15;;;30.70;51.00;;;;;;5006199;28;20623;-74
2021/09/21 10:48:45;;;;;;;1.40;1.40;;;30.80;48.70;;;;;;5011778;28;20188;-75
2021/09/21 10:51:15;;;;;;;1.50;1.50;;;30.40;52.00;;;;;;5004481;28;20247;-74
2021/09/21 10:53:41;;;;;;;1.25;1.25;;;30.40;51.90;;;;;;5012750;28;20657;-74
2021/09/21 10:56:12;;;;;;;1.45;1.45;;;30.00;52.10;;;;;;5011641;28;20419;-74
2021/09/21 10:58:38;;;;;;;1.23;1.23;;;29.90;50.50;;;;;;5008309;28;20245;-75
2021/09/21 11:01:05;;;;;;;1.27;1.20;;;29.60;50.30;;;;;;5013396;28;21814;-73
2021/09/21 11:03:37;;;;;;;1.15;1.15;;;29.50;50.80;;;;;;5006715;28;20185;-75
2021/09/21 11:06:02;;;;;;;2.88;1.75;;;29.40;49.60;;;;;;5011371;28;20963;-75
2021/09/21 11:08:33;;;;;;;1.20;1.17;;;29.30;51.00;;;;;;5014155;28;20259;-74
2021/09/21 11:11:01;;;;;;;1.45;1.45;;;29.20;51.30;;;;;;5015323;28;20216;-74
2021/09/21 11:13:34;;;;;;;0.95;0.95;;;29.40;50.90;;;;;;5014621;28;20173;-74
2021/09/21 11:16:03;;;;;;;1.27;0.90;;;29.80;50.90;;;;;;5008566;28;20185;-73
2021/09/21 11:18:29;;;;;;;0.80;0.80;;;30.10;51.00;;;;;;5013280;28;20176;-74
2021/09/21 11:20:56;;;;;;;0.70;0.70;;;29.90;49.70;;;;;;5007189;28;20768;-73
2021/09/21 11:23:29;;;;;;;0.80;0.80;;;29.90;51.20;;;;;;5013713;28;20262;-74
2021/09/21 11:26:00;;;;;;;1.65;0.85;;;30.20;50.20;;;;;;5011091;28;20325;-76
2021/09/21 11:28:29;;;;;;;2.78;1.25;;;30.60;51.20;;;;;;5014561;28;20626;-74
2021/09/21 11:30:56;;;;;;;0.70;0.70;;;31.00;50.40;;;;;;5012578;28;20212;-75
2021/09/21 11:33:24;;;;;;;0.93;0.93;;;30.90;50.00;;;;;;5008975;28;20189;-74
2021/09/21 11:35:53;;;;;;;0.85;0.85;;;30.60;49.20;;;;;;5020657;28;20184;-76
2021/09/21 11:38:20;;;;;;;0.90;0.90;;;30.30;51.40;;;;;;5012315;28;20254;-74
2021/09/21 11:40:52;;;;;;;1.50;0.90;;;30.30;50.10;;;;;;5018640;28;20185;-74
2021/09/21 11:43:18;;;;;;;2.25;1.00;;;30.40;49.00;;;;;;5017417;28;20185;-73
2021/09/21 11:45:46;;;;;;;1.20;1.10;;;30.50;50.80;;;;;;5013103;28;20177;-75
2021/09/21 11:48:17;;;;;;;1.00;1.00;;;30.30;49.10;;;;;;5013109;28;20219;-75
2021/09/21 11:50:44;;;;;;;0.90;0.90;;;30.30;50.60;;;;;;5013102;28;20211;-74
2021/09/21 11:53:12;;;;;;;0.82;0.82;;;30.50;50.90;;;;;;5013107;28;20181;-73
2021/09/21 11:55:41;;;;;;;1.02;1.02;;;30.30;49.10;;;;;;5016389;28;20216;-75
2021/09/21 11:58:14;;;;;;;1.17;1.17;;;29.90;49.10;;;;;;5020143;28;20225;-74
2021/09/21 12:00:51;;;;;;;1.10;1.10;;;29.60;50.50;;;;;;5016261;28;20184;-75
2021/09/21 12:03:22;;;;;;;0.85;0.85;;;29.40;49.50;;;;;;5013460;28;20179;-75
2021/09/21 12:05:54;;;;;;;1.10;1.10;;;29.50;50.30;;;;;;5014491;28;20215;-74
2021/09/21 12:08:28;;;;;;;0.98;0.98;;;29.80;50.20;;;;;;5016411;28;20813;-75
2021/09/21 12:11:10;;;;;;;0.85;0.85;;;30.30;49.70;;;;;;5014340;28;20680;-76
2021/09/21 12:13:36;;;;;;;0.85;0.80;;;30.80;47.30;;;;;;5012591;28;20192;-73
2021/09/21 12:16:05;;;;;;;1.05;1.05;;;31.10;47.70;;;;;;5012074;28;20189;-73
2021/09/21 12:18:33;;;;;;;1.00;1.00;;;31.00;49.90;;;;;;5011734;28;20260;-73
2021/09/21 12:21:00;;;;;;;1.67;1.08;;;31.00;50.10;;;;;;5013681;28;20263;-74
2021/09/21 12:23:29;;;;;;;0.70;0.70;;;31.30;48.60;;;;;;5015359;28;20749;-74
2021/09/21 12:25:57;;;;;;;0.75;0.75;;;31.20;47.60;;;;;;5015477;28;20242;-74
2021/09/21 12:28:28;;;;;;;4.28;0.60;;;31.00;49.60;;;;;;5010532;28;20250;-73
2021/09/21 12:30:55;;;;;;;0.85;0.85;;;30.90;49.00;;;;;;5010746;28;20240;-73
2021/09/21 12:33:21;;;;;;;0.85;0.82;;;31.10;49.60;;;;;;5012902;28;20693;-74
2021/09/21 12:35:49;;;;;;;0.70;0.70;;;31.30;49.60;;;;;;5006432;28;20181;-74
2021/09/21 12:38:21;;;;;;;0.60;0.60;;;31.50;49.60;;;;;;5047404;28;20185;-74
2021/09/21 12:40:51;;;;;;;0.65;0.63;;;31.60;46.80;;;;;;5011253;28;20215;-74
2021/09/21 12:43:20;;;;;;;0.50;0.50;;;31.10;46.60;;;;;;5012425;28;20299;-74
2021/09/21 12:45:48;;;;;;;0.63;0.63;;;30.70;46.90;;;;;;5016271;28;20263;-74
2021/09/21 12:48:14;;;;;;;0.40;0.40;;;30.20;47.70;;;;;;5013700;28;20212;-74
2021/09/21 12:50:42;;;;;;;0.40;0.40;;;29.90;47.40;;;;;;5011919;28;20204;-74
2021/09/21 12:53:18;;;;;;;0.40;0.40;;;29.70;49.50;;;;;;5018986;28;20185;-74
2021/09/21 12:55:44;;;;;;;0.40;0.40;;;29.40;47.90;;;;;;5009952;28;20181;-74
2021/09/21 12:58:12;;;;;;;0.40;0.40;;;28.80;49.00;;;;;;5010300;28;20180;-74
2021/09/21 13:00:39;;;;;;;0.50;0.50;;;28.80;48.30;;;;;;5015875;28;20184;-74